sensor_id;sensor_type;location;lat;lon;timestamp;P1;durP1;ratioP1;P2;durP2;ratioP2
79779;SDS011;69258;52.050;10.334;2023-04-24T00:07:30;1.27;;;1.20;;
79779;SDS011;69258;52.050;10.334;2023-04-24T00:22:32;1.47;;;1.40;;
79779;SDS011;69258;52.050;10.334;2023-04-24T00:37:35;1.60;;;1.50;;
79779;SDS011;69258;52.050;10.334;2023-04-24T00:52:37;1.20;;;1.20;;
79779;SDS011;69258;52.050;10.334;2023-04-24T01:07:39;1.40;;;1.30;;
79779;SDS011;69258;52.050;10.334;2023-04-24T01:22:42;1.50;;;1.40;;
79779;SDS011;69258;52.050;10.334;2023-04-24T01:37:44;1.00;;;1.00;;
79779;SDS011;69258;52.050;10.334;2023-04-24T01:52:46;1.43;;;1.33;;
79779;SDS011;69258;52.050;10.334;2023-04-24T02:07:48;1.10;;;1.10;;
79779;SDS011;69258;52.050;10.334;2023-04-24T02:22:50;1.10;;;1.10;;
79779;SDS011;69258;52.050;10.334;2023-04-24T02:37:52;1.20;;;1.20;;
79779;SDS011;69258;52.050;10.334;2023-04-24T02:52:53;1.40;;;1.30;;
79779;SDS011;69258;52.050;10.334;2023-04-24T03:07:55;1.23;;;1.23;;
79779;SDS011;69258;52.050;10.334;2023-04-24T03:22:57;1.30;;;1.20;;
79779;SDS011;69258;52.050;10.334;2023-04-24T03:37:59;1.03;;;1.03;;
79779;SDS011;69258;52.050;10.334;2023-04-24T03:53:01;1.37;;;1.10;;
79779;SDS011;69258;52.050;10.334;2023-04-24T04:08:02;0.93;;;0.93;;
79779;SDS011;69258;52.050;10.334;2023-04-24T04:23:04;1.00;;;1.00;;
79779;SDS011;69258;52.050;10.334;2023-04-24T04:38:06;0.90;;;0.90;;
79779;SDS011;69258;52.050;10.334;2023-04-24T04:53:08;1.53;;;1.10;;
79779;SDS011;69258;52.050;10.334;2023-04-24T05:08:09;1.87;;;1.20;;
79779;SDS011;69258;52.050;10.334;2023-04-24T05:23:27;4.67;;;1.40;;
79779;SDS011;69258;52.050;10.334;2023-04-24T05:38:28;2.43;;;1.50;;
79779;SDS011;69258;52.050;10.334;2023-04-24T05:53:30;3.67;;;1.30;;
79779;SDS011;69258;52.050;10.334;2023-04-24T06:08:32;2.77;;;1.43;;
79779;SDS011;69258;52.050;10.334;2023-04-24T06:23:34;1.10;;;1.00;;
79779;SDS011;69258;52.050;10.334;2023-04-24T06:38:36;3.13;;;1.10;;
79779;SDS011;69258;52.050;10.334;2023-04-24T06:53:37;1.07;;;1.07;;
79779;SDS011;69258;52.050;10.334;2023-04-24T07:08:39;1.20;;;1.10;;
79779;SDS011;69258;52.050;10.334;2023-04-24T07:23:41;1.33;;;1.10;;
79779;SDS011;69258;52.050;10.334;2023-04-24T07:38:42;1.07;;;0.93;;
79779;SDS011;69258;52.050;10.334;2023-04-24T07:53:44;1.07;;;1.00;;
79779;SDS011;69258;52.050;10.334;2023-04-24T08:08:46;1.07;;;1.07;;
79779;SDS011;69258;52.050;10.334;2023-04-24T08:23:48;2.57;;;1.10;;
79779;SDS011;69258;52.050;10.334;2023-04-24T08:38:49;1.30;;;1.20;;
79779;SDS011;69258;52.050;10.334;2023-04-24T08:53:54;0.90;;;0.90;;
79779;SDS011;69258;52.050;10.334;2023-04-24T09:08:56;0.90;;;0.90;;
79779;SDS011;69258;52.050;10.334;2023-04-24T09:24:01;1.10;;;0.87;;
79779;SDS011;69258;52.050;10.334;2023-04-24T09:39:06;0.90;;;0.90;;
79779;SDS011;69258;52.050;10.334;2023-04-24T09:54:16;0.90;;;0.90;;
79779;SDS011;69258;52.050;10.334;2023-04-24T10:09:19;1.00;;;1.00;;
79779;SDS011;69258;52.050;10.334;2023-04-24T10:24:22;0.90;;;0.90;;
79779;SDS011;69258;52.050;10.334;2023-04-24T10:39:24;0.80;;;0.80;;
79779;SDS011;69258;52.050;10.334;2023-04-24T10:54:29;0.90;;;0.90;;
79779;SDS011;69258;52.050;10.334;2023-04-24T11:09:36;1.20;;;1.10;;
79779;SDS011;69258;52.050;10.334;2023-04-24T11:24:39;0.80;;;0.80;;
79779;SDS011;69258;52.050;10.334;2023-04-24T11:39:51;0.70;;;0.70;;
79779;SDS011;69258;52.050;10.334;2023-04-24T11:54:54;0.87;;;0.87;;
79779;SDS011;69258;52.050;10.334;2023-04-24T12:09:57;0.90;;;0.90;;
79779;SDS011;69258;52.050;10.334;2023-04-24T12:40:07;0.67;;;0.67;;
79779;SDS011;69258;52.050;10.334;2023-04-24T12:55:11;0.70;;;0.70;;
79779;SDS011;69258;52.050;10.334;2023-04-24T13:10:13;0.80;;;0.80;;
79779;SDS011;69258;52.050;10.334;2023-04-24T13:25:15;0.80;;;0.80;;
79779;SDS011;69258;52.050;10.334;2023-04-24T13:40:17;0.70;;;0.70;;
79779;SDS011;69258;52.050;10.334;2023-04-24T13:55:18;0.80;;;0.80;;
79779;SDS011;69258;52.050;10.334;2023-04-24T14:10:20;0.70;;;0.70;;
79779;SDS011;69258;52.050;10.334;2023-04-24T14:25:22;0.70;;;0.70;;
79779;SDS011;69258;52.050;10.334;2023-04-24T14:40:23;0.70;;;0.70;;
79779;SDS011;69258;52.050;10.334;2023-04-24T14:55:28;0.70;;;0.70;;
79779;SDS011;69258;52.050;10.334;2023-04-24T15:10:30;0.70;;;0.70;;
79779;SDS011;69258;52.050;10.334;2023-04-24T15:25:32;0.77;;;0.77;;
79779;SDS011;69258;52.050;10.334;2023-04-24T15:40:33;1.03;;;0.60;;
79779;SDS011;69258;52.050;10.334;2023-04-24T15:55:35;0.70;;;0.70;;
79779;SDS011;69258;52.050;10.334;2023-04-24T16:10:37;2.00;;;0.80;;
79779;SDS011;69258;52.050;10.334;2023-04-24T16:25:39;1.30;;;0.80;;
79779;SDS011;69258;52.050;10.334;2023-04-24T16:40:43;1.60;;;0.80;;
79779;SDS011;69258;52.050;10.334;2023-04-24T16:55:45;0.60;;;0.60;;
79779;SDS011;69258;52.050;10.334;2023-04-24T17:10:50;0.70;;;0.70;;
79779;SDS011;69258;52.050;10.334;2023-04-24T17:25:52;0.73;;;0.73;;
79779;SDS011;69258;52.050;10.334;2023-04-24T17:40:54;0.70;;;0.70;;
79779;SDS011;69258;52.050;10.334;2023-04-24T17:55:56;0.60;;;0.60;;
79779;SDS011;69258;52.050;10.334;2023-04-24T18:10:58;0.60;;;0.60;;
79779;SDS011;69258;52.050;10.334;2023-04-24T18:26:00;0.70;;;0.70;;
79779;SDS011;69258;52.050;10.334;2023-04-24T18:41:03;0.87;;;0.70;;
79779;SDS011;69258;52.050;10.334;2023-04-24T18:56:05;0.93;;;0.70;;
79779;SDS011;69258;52.050;10.334;2023-04-24T19:11:07;0.60;;;0.60;;
79779;SDS011;69258;52.050;10.334;2023-04-24T19:26:09;0.77;;;0.77;;
79779;SDS011;69258;52.050;10.334;2023-04-24T19:41:11;0.70;;;0.70;;
79779;SDS011;69258;52.050;10.334;2023-04-24T19:56:14;0.60;;;0.60;;
79779;SDS011;69258;52.050;10.334;2023-04-24T20:11:16;0.60;;;0.60;;
79779;SDS011;69258;52.050;10.334;2023-04-24T20:26:18;0.80;;;0.70;;
79779;SDS011;69258;52.050;10.334;2023-04-24T20:41:20;0.60;;;0.60;;
79779;SDS011;69258;52.050;10.334;2023-04-24T20:56:22;1.57;;;0.83;;
79779;SDS011;69258;52.050;10.334;2023-04-24T21:11:23;1.40;;;0.70;;
79779;SDS011;69258;52.050;10.334;2023-04-24T21:26:25;0.60;;;0.60;;
79779;SDS011;69258;52.050;10.334;2023-04-24T21:41:27;0.73;;;0.73;;
79779;SDS011;69258;52.050;10.334;2023-04-24T21:56:29;1.70;;;0.70;;
79779;SDS011;69258;52.050;10.334;2023-04-24T22:11:30;0.77;;;0.77;;
79779;SDS011;69258;52.050;10.334;2023-04-24T22:26:32;1.03;;;0.93;;
79779;SDS011;69258;52.050;10.334;2023-04-24T22:41:34;0.80;;;0.80;;
79779;SDS011;69258;52.050;10.334;2023-04-24T22:56:35;0.77;;;0.77;;
79779;SDS011;69258;52.050;10.334;2023-04-24T23:11:37;1.03;;;0.80;;
79779;SDS011;69258;52.050;10.334;2023-04-24T23:26:39;0.80;;;0.80;;
79779;SDS011;69258;52.050;10.334;2023-04-24T23:41:41;0.80;;;0.80;;
79779;SDS011;69258;52.050;10.334;2023-04-24T23:56:43;1.17;;;0.90;;
